Time;durP1;ratioP1;P1;durP2;ratioP2;P2;SDS_P1;SDS_P2;PMS_P1;PMS_P2;Temp;Humidity;BMP_temperature;BMP_pressure;BME280_temperature;BME280_humidity;BME280_pressure;Samples;Min_cycle;Max_cycle;Signal;HPM_P1;HPM_P2
2023/09/10 00:00:23;;;;;;;;;;;19.00;70.40;;;;;;4151846;28;21827;-82
2023/09/10 00:02:23;;;;;;;;;;;19.00;71.20;;;;;;4151808;28;19928;-83
2023/09/10 00:04:25;;;;;;;;;;;19.00;71.00;;;;;;4166211;28;20203;-83
2023/09/10 00:06:25;;;;;;;;;;;19.00;71.40;;;;;;4144207;28;19913;-82
2023/09/10 00:08:27;;;;;;;;;;;19.00;71.10;;;;;;4133812;28;19922;-83
2023/09/10 00:10:48;;;;;;;;;;;19.10;71.30;;;;;;4147980;28;20547;-82
2023/09/10 00:13:09;;;;;;;;;;;19.00;71.40;;;;;;4175452;28;19924;-83
2023/09/10 00:15:10;;;;;;;;;;;19.00;71.70;;;;;;4162679;28;20823;-82
2023/09/10 00:17:30;;;;;;;;;;;19.00;71.80;;;;;;4148852;28;19936;-83
2023/09/10 00:19:51;;;;;;;;;;;19.00;72.10;;;;;;4153244;28;19917;-83
2023/09/10 00:22:05;;;;;;;;;;;19.00;72.30;;;;;;4154986;28;19918;-82
2023/09/10 00:24:26;;;;;;;;;;;19.00;73.50;;;;;;4151180;28;19929;-82
2023/09/10 00:26:47;;;;;;;;;;;19.00;72.90;;;;;;4152592;28;19914;-82
2023/09/10 00:29:07;;;;;;;;;;;19.00;73.00;;;;;;4151369;28;19928;-82
2023/09/10 00:31:28;;;;;;;;;;;19.00;73.10;;;;;;4169140;28;20875;-81
2023/09/10 00:33:48;;;;;;;;;;;19.00;73.20;;;;;;4153443;28;19968;-83
2023/09/10 00:36:09;;;;;;;;;;;19.00;73.80;;;;;;4148289;28;19975;-83
2023/09/10 00:38:30;;;;;;;;;;;19.00;73.50;;;;;;4151946;28;19949;-83
2023/09/10 00:40:50;;;;;;;;;;;19.00;73.70;;;;;;4150995;28;20044;-82
2023/09/10 00:43:11;;;;;;;;;;;19.00;73.80;;;;;;4151384;28;19956;-82
2023/09/10 00:45:32;;;;;;;;;;;18.90;74.30;;;;;;4149893;28;19925;-82
2023/09/10 00:47:53;;;;;;;;;;;18.90;73.60;;;;;;4152727;28;19921;-85
2023/09/10 00:50:14;;;;;;;;;;;18.90;73.90;;;;;;4153148;28;19920;-82
2023/09/10 00:52:36;;;;;;;;;;;18.90;74.00;;;;;;4142943;28;19921;-82
2023/09/10 00:54:56;;;;;;;;;;;19.00;74.10;;;;;;4149369;28;19951;-83
2023/09/10 00:57:17;;;;;;;;;;;18.90;74.40;;;;;;4150635;28;20363;-82
2023/09/10 00:59:38;;;;;;;;;;;18.90;74.30;;;;;;4151114;28;19978;-83
2023/09/10 01:01:58;;;;;;;;;;;18.90;74.40;;;;;;4150523;28;19924;-83
2023/09/10 01:04:20;;;;;;;;;;;18.90;74.30;;;;;;4151455;28;20398;-82
2023/09/10 01:06:41;;;;;;;;;;;18.90;74.90;;;;;;4155053;28;19936;-82
2023/09/10 01:09:02;;;;;;;;;;;18.80;74.80;;;;;;4152750;28;20299;-82
2023/09/10 01:11:32;;;;;;;;;;;18.80;74.40;;;;;;4152009;28;20330;-82
2023/09/10 01:13:55;;;;;;;;;;;18.80;74.30;;;;;;4152751;28;19923;-83
2023/09/10 01:16:23;;;;;;;;;;;18.80;74.60;;;;;;4150723;28;19952;-82
2023/09/10 01:18:50;;;;;;;;;;;18.80;74.60;;;;;;4153559;28;19992;-82
2023/09/10 01:21:29;;;;;;;;;;;18.80;74.40;;;;;;4149341;28;20422;-82
2023/09/10 01:24:09;;;;;;;;;;;18.80;74.40;;;;;;4151949;28;19913;-82
2023/09/10 01:26:30;;;;;;;;;;;18.80;74.50;;;;;;4153088;28;20291;-82
2023/09/10 01:28:50;;;;;;;;;;;18.80;74.80;;;;;;4151181;28;20260;-83
2023/09/10 01:31:11;;;;;;;;;;;18.80;74.60;;;;;;4148742;28;20371;-81
2023/09/10 01:33:35;;;;;;;;;;;18.80;74.50;;;;;;4152200;28;19913;-82
2023/09/10 01:36:07;;;;;;;;;;;18.70;74.30;;;;;;4151837;28;20578;-83
2023/09/10 01:38:36;;;;;;;;;;;18.70;74.20;;;;;;4147745;28;20379;-83
2023/09/10 01:41:02;;;;;;;;;;;18.70;74.20;;;;;;4150065;28;19960;-82
2023/09/10 01:43:05;;;;;;;;;;;18.70;74.20;;;;;;4152390;28;20008;-83
2023/09/10 01:45:09;;;;;;;;;;;18.70;74.20;;;;;;4150734;28;19924;-83
2023/09/10 01:47:10;;;;;;;;;;;18.70;74.30;;;;;;4152633;28;19913;-82
2023/09/10 01:49:10;;;;;;;;;;;18.70;74.30;;;;;;4150304;28;19920;-82
2023/09/10 01:51:11;;;;;;;;;;;18.60;74.20;;;;;;4150299;28;20307;-82
2023/09/10 01:53:12;;;;;;;;;;;18.70;74.10;;;;;;4149306;28;19917;-82
2023/09/10 01:55:12;;;;;;;;;;;18.60;74.10;;;;;;4166895;28;19926;-82
2023/09/10 01:57:13;;;;;;;;;;;18.60;74.20;;;;;;4145064;28;19928;-83
2023/09/10 01:59:13;;;;;;;;;;;18.60;74.10;;;;;;4151915;28;20085;-82
2023/09/10 02:01:14;;;;;;;;;;;18.60;73.90;;;;;;4152010;28;19912;-83
2023/09/10 02:03:14;;;;;;;;;;;18.60;73.90;;;;;;4151643;28;19917;-82
2023/09/10 02:05:15;;;;;;;;;;;18.60;73.70;;;;;;4151949;28;19971;-82
2023/09/10 02:07:15;;;;;;;;;;;18.50;73.80;;;;;;4147720;28;19929;-82
2023/09/10 02:09:16;;;;;;;;;;;18.60;73.70;;;;;;4152633;28;20367;-83
2023/09/10 02:11:18;;;;;;;;;;;18.50;74.40;;;;;;4151714;28;19961;-82
2023/09/10 02:13:19;;;;;;;;;;;18.50;73.60;;;;;;4151565;28;19936;-82
2023/09/10 02:15:19;;;;;;;;;;;18.50;73.50;;;;;;4153135;28;20377;-82
2023/09/10 02:17:20;;;;;;;;;;;18.40;73.40;;;;;;4153792;28;19959;-83
2023/09/10 02:19:21;;;;;;;;;;;18.40;73.40;;;;;;4152940;28;19945;-83
2023/09/10 02:21:21;;;;;;;;;;;18.40;73.50;;;;;;4165034;28;19928;-82
2023/09/10 02:23:22;;;;;;;;;;;18.40;73.50;;;;;;4170772;28;19989;-83
2023/09/10 02:25:22;;;;;;;;;;;18.40;73.50;;;;;;4169822;28;19929;-82
2023/09/10 02:27:23;;;;;;;;;;;18.40;73.50;;;;;;4157272;28;19921;-83
2023/09/10 02:29:24;;;;;;;;;;;18.40;73.60;;;;;;4153770;28;19976;-82
2023/09/10 02:31:25;;;;;;;;;;;18.30;73.60;;;;;;4156795;28;19921;-82
2023/09/10 02:33:25;;;;;;;;;;;18.30;73.50;;;;;;4154546;28;19943;-82
2023/09/10 02:35:26;;;;;;;;;;;18.30;73.50;;;;;;4153538;28;19929;-82
2023/09/10 02:37:26;;;;;;;;;;;18.30;73.50;;;;;;4153409;28;19932;-82
2023/09/10 02:39:30;;;;;;;;;;;18.20;73.50;;;;;;4153135;28;19921;-83
2023/09/10 02:41:30;;;;;;;;;;;18.30;73.70;;;;;;4154683;28;19928;-83
2023/09/10 02:43:31;;;;;;;;;;;18.20;73.80;;;;;;4155180;28;19929;-82
2023/09/10 02:45:32;;;;;;;;;;;18.30;73.90;;;;;;4154728;28;20514;-82
2023/09/10 02:47:32;;;;;;;;;;;18.20;73.70;;;;;;4156256;28;20040;-82
2023/09/10 02:49:33;;;;;;;;;;;18.20;73.80;;;;;;4155902;28;19924;-82
2023/09/10 02:51:33;;;;;;;;;;;18.20;73.90;;;;;;4159709;28;19925;-83
2023/09/10 02:53:34;;;;;;;;;;;18.20;73.90;;;;;;4171334;28;19963;-82
2023/09/10 02:55:34;;;;;;;;;;;18.20;73.90;;;;;;4164431;28;21177;-82
2023/09/10 02:57:35;;;;;;;;;;;18.20;74.40;;;;;;4177376;28;19924;-83
2023/09/10 02:59:35;;;;;;;;;;;18.10;74.00;;;;;;4180577;28;19970;-82
2023/09/10 03:01:36;;;;;;;;;;;18.10;74.00;;;;;;4179844;28;19936;-82
2023/09/10 03:03:36;;;;;;;;;;;18.10;74.00;;;;;;4181143;28;19913;-82
2023/09/10 03:05:37;;;;;;;;;;;18.00;74.10;;;;;;4177283;28;19905;-83
2023/09/10 03:07:37;;;;;;;;;;;18.00;74.10;;;;;;4163936;28;19980;-82
2023/09/10 03:09:38;;;;;;;;;;;18.10;74.20;;;;;;4163081;28;19902;-82
2023/09/10 03:11:38;;;;;;;;;;;18.00;74.40;;;;;;4174874;28;19921;-82
2023/09/10 03:13:39;;;;;;;;;;;18.00;74.60;;;;;;4166314;28;19970;-81
2023/09/10 03:15:39;;;;;;;;;;;18.00;74.70;;;;;;4154308;28;19924;-82
2023/09/10 03:17:40;;;;;;;;;;;17.90;74.90;;;;;;4154008;28;19924;-82
2023/09/10 03:19:40;;;;;;;;;;;17.90;75.30;;;;;;4155122;28;19967;-82
2023/09/10 03:21:41;;;;;;;;;;;17.90;75.30;;;;;;4158448;28;19968;-84
2023/09/10 03:23:41;;;;;;;;;;;17.80;75.30;;;;;;4157744;28;19917;-81
2023/09/10 03:25:42;;;;;;;;;;;17.90;75.10;;;;;;4156275;28;19952;-82
2023/09/10 03:27:43;;;;;;;;;;;17.80;75.00;;;;;;4154611;28;20059;-82
2023/09/10 03:29:44;;;;;;;;;;;17.80;75.10;;;;;;4152846;28;19917;-81
2023/09/10 03:31:45;;;;;;;;;;;17.90;75.00;;;;;;4157768;28;20921;-82
2023/09/10 03:33:45;;;;;;;;;;;17.70;74.80;;;;;;4157146;28;19921;-82
2023/09/10 03:35:46;;;;;;;;;;;17.70;74.90;;;;;;4170044;28;19921;-82
2023/09/10 03:37:46;;;;;;;;;;;17.70;74.90;;;;;;4155673;28;20126;-82
2023/09/10 03:39:47;;;;;;;;;;;17.70;74.90;;;;;;4156240;28;19913;-81
2023/09/10 03:41:47;;;;;;;;;;;17.70;75.00;;;;;;4154558;28;19914;-83
2023/09/10 03:43:48;;;;;;;;;;;17.70;75.00;;;;;;4149523;28;21963;-83
2023/09/10 03:45:49;;;;;;;;;;;17.60;75.20;;;;;;4150853;28;19928;-82
2023/09/10 03:47:50;;;;;;;;;;;17.60;75.00;;;;;;4142814;28;20555;-82
2023/09/10 03:49:50;;;;;;;;;;;17.60;75.00;;;;;;4154352;28;19917;-83
2023/09/10 03:51:56;;;;;;;;;;;17.60;75.00;;;;;;4155751;28;19967;-81
2023/09/10 03:53:57;;;;;;;;;;;17.50;74.80;;;;;;4154160;28;20027;-82
2023/09/10 03:55:59;;;;;;;;;;;17.50;74.90;;;;;;4152224;28;19972;-81
2023/09/10 03:57:59;;;;;;;;;;;17.60;74.90;;;;;;4157922;28;19917;-82
2023/09/10 04:00:00;;;;;;;;;;;17.50;75.00;;;;;;4140373;28;19913;-82
2023/09/10 04:02:03;;;;;;;;;;;17.50;74.90;;;;;;4157534;28;19917;-83
2023/09/10 04:04:23;;;;;;;;;;;17.40;75.00;;;;;;4153775;28;19913;-82
2023/09/10 04:06:24;;;;;;;;;;;17.40;75.00;;;;;;4150988;28;19971;-82
2023/09/10 04:08:40;;;;;;;;;;;17.40;75.00;;;;;;4149728;28;19917;-82
2023/09/10 04:11:00;;;;;;;;;;;17.40;75.00;;;;;;4143599;28;19975;-82
2023/09/10 04:13:21;;;;;;;;;;;17.40;75.10;;;;;;4140795;28;19971;-84
2023/09/10 04:15:44;;;;;;;;;;;17.40;75.10;;;;;;4148294;28;20391;-84
2023/09/10 04:18:05;;;;;;;;;;;17.30;75.10;;;;;;4151746;28;20020;-84
2023/09/10 04:20:26;;;;;;;;;;;17.40;75.10;;;;;;4154655;28;20939;-85
2023/09/10 04:22:47;;;;;;;;;;;17.40;75.20;;;;;;4150385;28;20302;-83
2023/09/10 04:25:07;;;;;;;;;;;17.40;75.20;;;;;;4150471;28;19913;-85
2023/09/10 04:27:28;;;;;;;;;;;17.30;75.20;;;;;;4149380;28;19976;-82
2023/09/10 04:29:54;;;;;;;;;;;17.40;75.40;;;;;;4150822;28;19956;-82
2023/09/10 04:32:23;;;;;;;;;;;17.30;75.50;;;;;;4149675;28;20120;-81
2023/09/10 04:34:44;;;;;;;;;;;17.30;75.20;;;;;;4156829;28;19917;-82
2023/09/10 04:37:04;;;;;;;;;;;17.40;75.30;;;;;;4153524;28;19917;-82
2023/09/10 04:39:26;;;;;;;;;;;17.20;75.10;;;;;;4155174;28;20438;-81
2023/09/10 04:41:46;;;;;;;;;;;17.20;75.20;;;;;;4157564;28;19991;-82
2023/09/10 04:44:07;;;;;;;;;;;17.20;75.20;;;;;;4142123;28;20204;-82
2023/09/10 04:46:28;;;;;;;;;;;17.20;75.30;;;;;;4151939;28;19944;-82
2023/09/10 04:48:48;;;;;;;;;;;17.20;75.40;;;;;;4154578;28;19921;-82
2023/09/10 04:51:09;;;;;;;;;;;17.20;75.60;;;;;;4151654;28;19925;-82
2023/09/10 04:53:10;;;;;;;;;;;17.20;75.50;;;;;;4150696;28;20417;-83
2023/09/10 04:55:10;;;;;;;;;;;17.30;75.70;;;;;;4153295;28;19917;-84
2023/09/10 04:57:14;;;;;;;;;;;17.30;75.60;;;;;;4152981;28;19971;-84
2023/09/10 04:59:14;;;;;;;;;;;17.20;75.50;;;;;;4148651;28;19925;-83
2023/09/10 05:01:15;;;;;;;;;;;17.20;75.50;;;;;;4149980;28;20306;-84
2023/09/10 05:03:16;;;;;;;;;;;17.20;75.80;;;;;;4136972;28;20573;-85
2023/09/10 05:05:25;;;;;;;;;;;17.20;75.80;;;;;;4154329;28;20656;-84
2023/09/10 05:07:29;;;;;;;;;;;17.20;75.60;;;;;;4151288;28;19924;-83
2023/09/10 05:09:31;;;;;;;;;;;17.20;75.50;;;;;;4139547;28;19913;-82
2023/09/10 05:11:34;;;;;;;;;;;17.20;75.50;;;;;;4149861;28;19964;-83
2023/09/10 05:13:38;;;;;;;;;;;17.10;75.50;;;;;;4152992;28;19924;-82
2023/09/10 05:15:38;;;;;;;;;;;17.20;75.60;;;;;;4150367;28;19940;-82
2023/09/10 05:17:39;;;;;;;;;;;17.10;75.60;;;;;;4156412;28;19921;-82
2023/09/10 05:20:00;;;;;;;;;;;17.10;75.70;;;;;;4149533;28;19921;-81
2023/09/10 05:22:00;;;;;;;;;;;17.10;75.70;;;;;;4152368;28;19917;-82
2023/09/10 05:24:21;;;;;;;;;;;17.20;75.70;;;;;;4151620;28;19917;-83
2023/09/10 05:26:42;;;;;;;;;;;17.20;75.80;;;;;;4150836;28;19932;-83
2023/09/10 05:29:02;;;;;;;;;;;17.20;75.80;;;;;;4152356;28;19921;-82
2023/09/10 05:31:22;;;;;;;;;;;17.10;75.70;;;;;;4150875;28;20714;-84
2023/09/10 05:33:46;;;;;;;;;;;17.10;75.70;;;;;;4150275;28;19921;-83
2023/09/10 05:36:10;;;;;;;;;;;17.20;75.80;;;;;;4151090;28;19925;-82
2023/09/10 05:38:31;;;;;;;;;;;17.10;75.90;;;;;;4148102;28;19913;-82
2023/09/10 05:40:52;;;;;;;;;;;17.10;76.00;;;;;;4152955;28;19975;-83
2023/09/10 05:43:12;;;;;;;;;;;17.10;76.10;;;;;;4150354;28;19918;-84
2023/09/10 05:45:33;;;;;;;;;;;17.10;76.10;;;;;;4150770;28;19933;-83
2023/09/10 05:47:54;;;;;;;;;;;17.20;76.30;;;;;;4153318;28;20000;-83
2023/09/10 05:50:14;;;;;;;;;;;17.10;76.00;;;;;;4155678;28;19959;-83
2023/09/10 05:52:35;;;;;;;;;;;17.20;76.20;;;;;;4157143;28;19932;-84
2023/09/10 05:54:56;;;;;;;;;;;17.10;76.10;;;;;;4151390;28;19917;-83
2023/09/10 05:57:19;;;;;;;;;;;17.10;76.30;;;;;;4151721;28;19927;-82
2023/09/10 05:59:40;;;;;;;;;;;17.10;76.20;;;;;;4151730;28;20004;-82
2023/09/10 06:02:00;;;;;;;;;;;17.10;76.20;;;;;;4150804;28;19960;-82
2023/09/10 06:04:21;;;;;;;;;;;17.20;76.30;;;;;;4157968;28;19913;-85
2023/09/10 06:06:41;;;;;;;;;;;17.20;76.30;;;;;;4159806;28;19917;-82
2023/09/10 06:09:02;;;;;;;;;;;17.20;76.50;;;;;;4150998;28;19921;-83
2023/09/10 06:11:23;;;;;;;;;;;17.20;76.70;;;;;;4148478;28;19921;-83
2023/09/10 06:13:43;;;;;;;;;;;17.20;76.70;;;;;;4153768;28;19924;-84
2023/09/10 06:16:04;;;;;;;;;;;17.20;76.70;;;;;;4152533;28;20655;-82
2023/09/10 06:18:24;;;;;;;;;;;17.20;76.80;;;;;;4151828;28;20462;-83
2023/09/10 06:20:45;;;;;;;;;;;17.20;76.80;;;;;;4151769;28;19921;-84
2023/09/10 06:23:11;;;;;;;;;;;17.20;76.80;;;;;;4150538;28;19948;-83
2023/09/10 06:25:32;;;;;;;;;;;17.20;76.80;;;;;;4146574;28;20020;-84
2023/09/10 06:27:53;;;;;;;;;;;17.20;77.60;;;;;;4148159;28;19921;-84
2023/09/10 06:30:13;;;;;;;;;;;17.30;77.10;;;;;;4152335;28;20215;-82
2023/09/10 06:32:34;;;;;;;;;;;17.20;77.30;;;;;;4177818;28;19992;-83
2023/09/10 06:34:57;;;;;;;;;;;17.20;77.10;;;;;;4174912;28;19905;-85
2023/09/10 06:37:17;;;;;;;;;;;17.20;77.10;;;;;;4158958;28;19980;-83
2023/09/10 06:39:38;;;;;;;;;;;17.30;77.80;;;;;;4151737;28;20349;-82
2023/09/10 06:41:59;;;;;;;;;;;17.30;77.50;;;;;;4155181;28;19914;-83
2023/09/10 06:44:20;;;;;;;;;;;17.30;77.50;;;;;;4154509;28;19952;-83
2023/09/10 06:48:48;;;;;;;;;;;17.30;77.60;;;;;;4136104;28;19953;-81
2023/09/10 06:50:48;;;;;;;;;;;17.30;77.80;;;;;;4138807;28;19922;-82
2023/09/10 06:52:51;;;;;;;;;;;17.30;77.70;;;;;;4132859;28;19944;-82
2023/09/10 06:54:55;;;;;;;;;;;17.30;77.70;;;;;;4134981;28;19914;-83
2023/09/10 06:56:55;;;;;;;;;;;17.30;78.50;;;;;;4132049;28;20008;-82
2023/09/10 06:58:56;;;;;;;;;;;17.30;78.00;;;;;;4142325;28;19965;-83
2023/09/10 07:01:04;;;;;;;;;;;17.40;77.80;;;;;;4130224;28;19976;-83
2023/09/10 07:03:08;;;;;;;;;;;17.30;77.90;;;;;;4133139;28;19933;-85
2023/09/10 07:05:09;;;;;;;;;;;17.30;77.90;;;;;;4125505;28;19922;-84
2023/09/10 07:07:10;;;;;;;;;;;17.40;78.00;;;;;;4136303;28;19937;-83
2023/09/10 07:09:21;;;;;;;;;;;;;;;;;;;;;
2023/09/10 07:11:38;;;;;;;;;;;17.40;78.00;;;;;;4132227;28;19918;-84
2023/09/10 07:13:44;;;;;;;;;;;17.40;78.00;;;;;;4127750;28;20364;-83
2023/09/10 07:15:45;;;;;;;;;;;17.40;78.30;;;;;;4122591;28;20003;-83
2023/09/10 07:17:46;;;;;;;;;;;17.40;78.50;;;;;;4128073;28;20382;-83
2023/09/10 07:19:49;;;;;;;;;;;17.50;78.40;;;;;;4129796;28;20000;-84
2023/09/10 07:21:50;;;;;;;;;;;17.50;78.20;;;;;;4126093;28;19922;-83
2023/09/10 07:23:59;;;;;;;;;;;17.60;78.30;;;;;;4134092;28;20457;-83
2023/09/10 07:26:00;;;;;;;;;;;17.50;78.30;;;;;;4120085;28;20023;-82
2023/09/10 07:28:00;;;;;;;;;;;17.50;78.50;;;;;;4132258;28;20000;-82
2023/09/10 07:30:01;;;;;;;;;;;17.60;78.60;;;;;;4122838;28;19929;-83
2023/09/10 07:32:02;;;;;;;;;;;17.60;78.40;;;;;;4133066;28;19925;-83
2023/09/10 07:34:03;;;;;;;;;;;17.60;78.60;;;;;;4132451;28;19921;-83
2023/09/10 07:36:03;;;;;;;;;;;17.60;78.50;;;;;;4133653;28;19917;-84
2023/09/10 07:38:04;;;;;;;;;;;17.60;78.30;;;;;;4132321;28;20361;-83
2023/09/10 07:40:05;;;;;;;;;;;17.70;78.40;;;;;;4128277;28;20508;-84
2023/09/10 07:42:05;;;;;;;;;;;17.70;78.50;;;;;;4119127;28;19922;-82
2023/09/10 07:44:06;;;;;;;;;;;17.70;78.60;;;;;;4133107;28;19928;-83
2023/09/10 07:46:07;;;;;;;;;;;17.80;78.40;;;;;;4130354;28;19944;-82
2023/09/10 07:48:08;;;;;;;;;;;17.80;78.30;;;;;;4120936;28;19921;-83
2023/09/10 07:50:09;;;;;;;;;;;17.80;78.40;;;;;;4130979;28;19956;-84
2023/09/10 07:52:12;;;;;;;;;;;17.80;78.60;;;;;;4144735;28;19933;-83
2023/09/10 07:54:13;;;;;;;;;;;17.90;78.40;;;;;;4120309;28;20159;-83
2023/09/10 07:56:22;;;;;;;;;;;18.00;78.50;;;;;;4137066;28;19918;-83
2023/09/10 07:58:22;;;;;;;;;;;17.90;78.40;;;;;;4134630;28;19967;-84
2023/09/10 08:00:23;;;;;;;;;;;17.90;78.30;;;;;;4127599;28;20747;-84
2023/09/10 08:02:26;;;;;;;;;;;18.00;78.40;;;;;;4124393;28;19924;-83
2023/09/10 08:04:27;;;;;;;;;;;18.00;78.30;;;;;;4127701;28;19936;-83
2023/09/10 08:06:28;;;;;;;;;;;18.10;78.40;;;;;;4137724;28;20314;-84
2023/09/10 08:08:31;;;;;;;;;;;18.10;78.20;;;;;;4132072;28;19999;-84
2023/09/10 08:10:32;;;;;;;;;;;18.10;78.30;;;;;;4128817;28;19931;-84
2023/09/10 08:12:33;;;;;;;;;;;18.20;78.30;;;;;;4127570;28;19926;-84
2023/09/10 08:14:35;;;;;;;;;;;18.20;78.20;;;;;;4143251;28;20087;-84
2023/09/10 08:16:39;;;;;;;;;;;18.20;78.20;;;;;;4112863;28;19918;-84
2023/09/10 08:18:40;;;;;;;;;;;18.30;78.40;;;;;;4127541;28;20681;-84
2023/09/10 08:20:41;;;;;;;;;;;18.30;78.30;;;;;;4127608;28;19921;-85
2023/09/10 08:22:42;;;;;;;;;;;18.40;78.30;;;;;;4129909;28;19969;-85
2023/09/10 08:24:43;;;;;;;;;;;18.40;78.20;;;;;;4132752;28;19922;-85
2023/09/10 08:26:43;;;;;;;;;;;18.40;78.10;;;;;;4135427;28;19928;-83
2023/09/10 08:28:44;;;;;;;;;;;18.50;78.20;;;;;;4137307;28;20100;-82
2023/09/10 08:30:44;;;;;;;;;;;18.60;78.20;;;;;;4128380;28;19914;-83
2023/09/10 08:32:47;;;;;;;;;;;18.60;78.20;;;;;;4137227;28;19914;-84
2023/09/10 08:34:48;;;;;;;;;;;18.60;78.00;;;;;;4130545;28;20008;-83
2023/09/10 08:36:48;;;;;;;;;;;18.70;77.90;;;;;;4133811;28;19922;-83
2023/09/10 08:38:49;;;;;;;;;;;18.80;77.80;;;;;;4121305;28;20315;-84
2023/09/10 08:41:00;;;;;;;;;;;18.80;77.60;;;;;;4134519;28;20574;-85
2023/09/10 08:43:08;;;;;;;;;;;18.80;77.30;;;;;;4129476;28;19921;-84
2023/09/10 08:45:10;;;;;;;;;;;18.80;77.20;;;;;;4134517;28;19914;-83
2023/09/10 08:47:13;;;;;;;;;;;18.90;77.20;;;;;;4129453;28;20029;-84
2023/09/10 08:49:14;;;;;;;;;;;18.90;76.90;;;;;;4117518;28;20427;-85
2023/09/10 08:51:15;;;;;;;;;;;18.90;76.90;;;;;;4130653;28;19947;-83
2023/09/10 08:53:17;;;;;;;;;;;18.90;76.80;;;;;;4135885;28;19921;-83
2023/09/10 08:55:18;;;;;;;;;;;18.90;76.60;;;;;;4156410;28;19972;-85
2023/09/10 08:57:19;;;;;;;;;;;19.00;76.50;;;;;;4144670;28;19922;-83
2023/09/10 08:59:21;;;;;;;;;;;19.00;76.60;;;;;;4132913;28;20156;-84
2023/09/10 09:01:23;;;;;;;;;;;19.00;76.50;;;;;;4138739;28;19949;-84
2023/09/10 09:03:24;;;;;;;;;;;19.10;76.60;;;;;;4130048;28;19920;-84
2023/09/10 09:05:27;;;;;;;;;;;19.10;76.60;;;;;;4134907;28;20495;-84
2023/09/10 09:07:31;;;;;;;;;;;19.10;76.50;;;;;;4130749;28;19921;-82
2023/09/10 09:09:39;;;;;;;;;;;19.20;76.40;;;;;;4128772;28;19971;-84
2023/09/10 09:11:41;;;;;;;;;;;19.30;76.40;;;;;;4132476;28;20035;-84
2023/09/10 09:13:43;;;;;;;;;;;19.20;76.20;;;;;;4131675;28;19922;-84
2023/09/10 09:15:44;;;;;;;;;;;19.30;76.20;;;;;;4129755;28;20572;-83
2023/09/10 09:17:46;;;;;;;;;;;19.30;76.30;;;;;;4127724;28;20005;-84
2023/09/10 09:20:02;;;;;;;;;;;19.30;76.10;;;;;;4129425;28;19922;-85
2023/09/10 09:22:05;;;;;;;;;;;19.40;76.20;;;;;;4118574;28;21346;-84
2023/09/10 09:24:34;;;;;;;;;;;19.40;76.10;;;;;;4130949;28;19918;-84
2023/09/10 09:26:35;;;;;;;;;;;19.50;76.00;;;;;;4125379;28;19944;-84
2023/09/10 09:28:56;;;;;;;;;;;19.50;75.80;;;;;;4129114;28;19922;-84
2023/09/10 09:31:19;;;;;;;;;;;19.50;75.80;;;;;;4131897;28;19925;-84
2023/09/10 09:33:40;;;;;;;;;;;19.60;75.80;;;;;;4124116;28;19918;-85
2023/09/10 09:36:10;;;;;;;;;;;19.60;75.80;;;;;;4127311;28;19920;-83
2023/09/10 09:38:31;;;;;;;;;;;19.70;75.70;;;;;;4130505;28;19913;-84
2023/09/10 09:40:52;;;;;;;;;;;19.70;75.70;;;;;;4128419;28;19913;-84
2023/09/10 09:43:13;;;;;;;;;;;19.80;75.70;;;;;;4133093;28;19918;-83
2023/09/10 09:45:34;;;;;;;;;;;19.80;75.60;;;;;;4132430;28;19918;-84
2023/09/10 09:47:35;;;;;;;;;;;19.90;75.60;;;;;;4129505;28;19941;-84
2023/09/10 09:49:42;;;;;;;;;;;19.90;75.50;;;;;;4128523;28;19959;-84
2023/09/10 09:51:43;;;;;;;;;;;19.90;75.30;;;;;;4122700;28;20127;-85
2023/09/10 09:53:44;;;;;;;;;;;20.00;75.40;;;;;;4134295;28;20000;-84
2023/09/10 09:55:44;;;;;;;;;;;20.00;75.00;;;;;;4134185;28;19914;-84
2023/09/10 09:57:45;;;;;;;;;;;20.10;75.00;;;;;;4138075;28;19936;-86
2023/09/10 09:59:48;;;;;;;;;;;20.10;74.50;;;;;;4132637;28;19921;-85
2023/09/10 10:01:48;;;;;;;;;;;20.20;74.50;;;;;;4137273;28;20012;-82
2023/09/10 10:03:49;;;;;;;;;;;20.20;74.50;;;;;;4131467;28;19983;-85
2023/09/10 10:05:50;;;;;;;;;;;20.20;74.50;;;;;;4134459;28;20011;-84
2023/09/10 10:07:54;;;;;;;;;;;20.20;74.30;;;;;;4134188;28;19924;-85
2023/09/10 10:09:55;;;;;;;;;;;20.30;74.40;;;;;;4135557;28;19929;-82
2023/09/10 10:11:56;;;;;;;;;;;20.30;74.30;;;;;;4130455;28;20484;-84
2023/09/10 10:13:58;;;;;;;;;;;20.30;74.20;;;;;;4132198;28;19918;-83
2023/09/10 10:15:59;;;;;;;;;;;20.40;74.20;;;;;;4134953;28;20412;-84
2023/09/10 10:17:59;;;;;;;;;;;20.40;74.20;;;;;;4132872;28;19975;-84
2023/09/10 10:20:01;;;;;;;;;;;20.50;74.20;;;;;;4130842;28;19968;-83
2023/09/10 10:22:04;;;;;;;;;;;20.60;74.20;;;;;;4133454;28;19940;-84
2023/09/10 10:24:05;;;;;;;;;;;20.60;74.10;;;;;;4134362;28;19922;-83
2023/09/10 10:26:06;;;;;;;;;;;20.60;73.90;;;;;;4133796;28;20482;-83
2023/09/10 10:28:09;;;;;;;;;;;20.70;73.90;;;;;;4137082;28;19928;-82
2023/09/10 10:30:12;;;;;;;;;;;20.70;73.90;;;;;;4133663;28;19913;-84
2023/09/10 10:32:21;;;;;;;;;;;20.80;73.50;;;;;;4128890;28;19951;-84
2023/09/10 10:34:26;;;;;;;;;;;20.80;73.60;;;;;;4134118;28;19918;-84
2023/09/10 10:36:36;;;;;;;;;;;20.90;73.60;;;;;;4144549;28;19986;-84
2023/09/10 10:38:56;;;;;;;;;;;20.90;73.50;;;;;;4127147;28;19946;-84
2023/09/10 10:41:06;;;;;;;;;;;21.00;73.40;;;;;;4121769;28;20011;-85
2023/09/10 10:43:29;;;;;;;;;;;21.00;73.20;;;;;;4131959;28;19918;-84
2023/09/10 10:45:52;;;;;;;;;;;21.10;73.00;;;;;;4152494;28;19925;-84
2023/09/10 10:48:15;;;;;;;;;;;21.10;73.00;;;;;;4152550;28;19978;-84
2023/09/10 10:50:38;;;;;;;;;;;21.10;72.80;;;;;;4141574;28;19914;-84
2023/09/10 10:52:59;;;;;;;;;;;21.20;72.70;;;;;;4126430;28;20009;-83
2023/09/10 10:55:20;;;;;;;;;;;21.20;72.50;;;;;;4133450;28;19914;-83
2023/09/10 10:57:41;;;;;;;;;;;21.30;72.40;;;;;;4133882;28;19917;-83
2023/09/10 11:00:03;;;;;;;;;;;21.30;72.20;;;;;;4131645;28;19921;-84
2023/09/10 11:02:24;;;;;;;;;;;21.30;72.30;;;;;;4132142;28;19964;-84
2023/09/10 11:04:58;;;;;;;;;;;21.40;72.40;;;;;;4134660;28;19914;-83
2023/09/10 11:07:19;;;;;;;;;;;21.40;72.20;;;;;;4132113;28;19925;-84
2023/09/10 11:09:39;;;;;;;;;;;21.50;71.50;;;;;;4135301;28;19991;-83
2023/09/10 11:11:43;;;;;;;;;;;21.50;71.90;;;;;;4147400;28;20041;-83
2023/09/10 11:14:02;;;;;;;;;;;21.50;71.90;;;;;;4133950;28;19929;-84
2023/09/10 11:16:03;;;;;;;;;;;21.60;71.90;;;;;;4139862;28;19925;-83
2023/09/10 11:18:22;;;;;;;;;;;21.60;71.70;;;;;;4133184;28;19921;-84
2023/09/10 11:20:55;;;;;;;;;;;21.70;71.80;;;;;;4133179;28;19928;-84
2023/09/10 11:23:06;;;;;;;;;;;21.70;71.70;;;;;;4101417;28;19924;-84
2023/09/10 11:25:07;;;;;;;;;;;21.80;71.70;;;;;;4132724;28;20124;-84
2023/09/10 11:27:18;;;;;;;;;;;21.80;71.40;;;;;;4130763;28;20019;-84
2023/09/10 11:29:19;;;;;;;;;;;21.90;71.20;;;;;;4132037;28;20039;-83
2023/09/10 11:31:38;;;;;;;;;;;21.90;71.10;;;;;;4138078;28;19918;-83
2023/09/10 11:33:38;;;;;;;;;;;21.90;71.10;;;;;;4135356;28;20346;-83
2023/09/10 11:35:39;;;;;;;;;;;21.90;70.90;;;;;;4139617;28;19918;-84
2023/09/10 11:37:41;;;;;;;;;;;22.00;71.00;;;;;;4135399;28;19922;-84
2023/09/10 11:39:42;;;;;;;;;;;22.00;71.00;;;;;;4130198;28;19972;-83
2023/09/10 11:41:49;;;;;;;;;;;22.10;71.00;;;;;;4132501;28;19914;-84
2023/09/10 11:43:50;;;;;;;;;;;22.10;71.00;;;;;;4136269;28;19913;-83
2023/09/10 11:45:50;;;;;;;;;;;22.10;70.90;;;;;;4139895;28;19914;-84
2023/09/10 11:47:51;;;;;;;;;;;22.20;70.80;;;;;;4133739;28;19924;-85
2023/09/10 11:49:59;;;;;;;;;;;22.20;70.30;;;;;;4131435;28;20178;-85
2023/09/10 11:52:00;;;;;;;;;;;22.30;70.10;;;;;;4132247;28;19918;-84
2023/09/10 11:54:00;;;;;;;;;;;22.30;70.10;;;;;;4126969;28;20015;-84
2023/09/10 11:56:01;;;;;;;;;;;22.30;70.00;;;;;;4127419;28;19921;-85
2023/09/10 11:58:02;;;;;;;;;;;22.30;69.90;;;;;;4134091;28;20580;-84
2023/09/10 12:00:03;;;;;;;;;;;22.30;70.00;;;;;;4132983;28;19918;-84
2023/09/10 12:02:04;;;;;;;;;;;22.30;70.10;;;;;;4131056;28;19945;-85
2023/09/10 12:04:05;;;;;;;;;;;22.40;70.00;;;;;;4148927;28;19922;-83
2023/09/10 12:06:05;;;;;;;;;;;22.40;69.60;;;;;;4147468;28;19962;-84
2023/09/10 12:08:06;;;;;;;;;;;22.40;69.90;;;;;;4134966;28;19924;-84
2023/09/10 12:10:07;;;;;;;;;;;22.40;69.80;;;;;;4135283;28;19913;-84
2023/09/10 12:12:19;;;;;;;;;;;22.40;69.70;;;;;;4125854;28;20415;-85
2023/09/10 12:14:35;;;;;;;;;;;22.50;69.80;;;;;;4124028;28;19921;-86
2023/09/10 12:17:11;;;;;;;;;;;22.50;69.40;;;;;;4136730;28;19921;-85
2023/09/10 12:19:12;;;;;;;;;;;22.50;69.50;;;;;;4133000;28;20395;-85
2023/09/10 12:21:15;;;;;;;;;;;22.50;69.30;;;;;;4125352;28;19925;-84
2023/09/10 12:23:38;;;;;;;;;;;22.50;69.30;;;;;;4126002;28;19926;-87
2023/09/10 12:25:42;;;;;;;;;;;22.60;69.10;;;;;;4127341;28;19921;-85
2023/09/10 12:28:03;;;;;;;;;;;22.60;69.20;;;;;;4129078;28;19918;-86
2023/09/10 12:30:24;;;;;;;;;;;22.60;67.20;;;;;;4129719;28;20279;-86
2023/09/10 12:32:44;;;;;;;;;;;22.60;67.10;;;;;;4130439;28;19984;-85
2023/09/10 12:35:05;;;;;;;;;;;22.70;68.10;;;;;;4131433;28;19976;-85